sensor_id;sensor_type;location;lat;lon;timestamp;P1;durP1;ratioP1;P2;durP2;ratioP2
30948;SDS011;17637;51.984;21.208;2022-10-30T00:01:43;26.92;;;17.60;;
30948;SDS011;17637;51.984;21.208;2022-10-30T00:04:10;27.85;;;19.50;;
30948;SDS011;17637;51.984;21.208;2022-10-30T00:06:37;29.13;;;20.52;;
30948;SDS011;17637;51.984;21.208;2022-10-30T00:09:04;30.10;;;20.30;;
30948;SDS011;17637;51.984;21.208;2022-10-30T00:11:31;32.08;;;21.50;;
30948;SDS011;17637;51.984;21.208;2022-10-30T00:13:58;30.92;;;20.80;;
30948;SDS011;17637;51.984;21.208;2022-10-30T00:16:25;26.83;;;18.38;;
30948;SDS011;17637;51.984;21.208;2022-10-30T00:18:53;24.75;;;16.30;;
30948;SDS011;17637;51.984;21.208;2022-10-30T00:21:20;25.15;;;18.23;;
30948;SDS011;17637;51.984;21.208;2022-10-30T00:23:47;32.65;;;18.40;;
30948;SDS011;17637;51.984;21.208;2022-10-30T00:26:17;25.80;;;17.38;;
30948;SDS011;17637;51.984;21.208;2022-10-30T00:28:48;31.27;;;19.73;;
30948;SDS011;17637;51.984;21.208;2022-10-30T00:31:19;32.50;;;19.27;;
30948;SDS011;17637;51.984;21.208;2022-10-30T00:33:50;31.88;;;19.33;;
30948;SDS011;17637;51.984;21.208;2022-10-30T00:36:18;26.63;;;19.75;;
30948;SDS011;17637;51.984;21.208;2022-10-30T00:38:46;32.85;;;19.48;;
30948;SDS011;17637;51.984;21.208;2022-10-30T00:41:18;24.85;;;16.48;;
30948;SDS011;17637;51.984;21.208;2022-10-30T00:43:47;25.65;;;18.88;;
30948;SDS011;17637;51.984;21.208;2022-10-30T00:46:16;30.05;;;18.77;;
30948;SDS011;17637;51.984;21.208;2022-10-30T00:48:51;27.10;;;18.60;;
30948;SDS011;17637;51.984;21.208;2022-10-30T00:51:26;26.33;;;17.60;;
30948;SDS011;17637;51.984;21.208;2022-10-30T00:53:55;29.55;;;19.27;;
30948;SDS011;17637;51.984;21.208;2022-10-30T00:56:26;30.85;;;18.60;;
30948;SDS011;17637;51.984;21.208;2022-10-30T00:58:56;27.13;;;18.25;;
30948;SDS011;17637;51.984;21.208;2022-10-30T01:01:27;25.10;;;19.00;;
30948;SDS011;17637;51.984;21.208;2022-10-30T01:03:58;29.80;;;19.08;;
30948;SDS011;17637;51.984;21.208;2022-10-30T01:06:28;26.57;;;16.37;;
30948;SDS011;17637;51.984;21.208;2022-10-30T01:08:58;24.60;;;18.40;;
30948;SDS011;17637;51.984;21.208;2022-10-30T01:11:26;19.27;;;15.30;;
30948;SDS011;17637;51.984;21.208;2022-10-30T01:13:53;28.33;;;19.85;;
30948;SDS011;17637;51.984;21.208;2022-10-30T01:16:33;27.08;;;19.83;;
30948;SDS011;17637;51.984;21.208;2022-10-30T01:38:52;24.92;;;16.20;;
30948;SDS011;17637;51.984;21.208;2022-10-30T01:41:22;29.25;;;18.70;;
30948;SDS011;17637;51.984;21.208;2022-10-30T01:43:51;28.08;;;20.30;;
30948;SDS011;17637;51.984;21.208;2022-10-30T01:52:45;25.73;;;19.05;;
30948;SDS011;17637;51.984;21.208;2022-10-30T01:55:47;29.27;;;19.40;;
30948;SDS011;17637;51.984;21.208;2022-10-30T02:01:01;29.80;;;18.35;;
30948;SDS011;17637;51.984;21.208;2022-10-30T02:03:29;30.10;;;18.52;;
30948;SDS011;17637;51.984;21.208;2022-10-30T02:05:56;26.42;;;15.93;;
30948;SDS011;17637;51.984;21.208;2022-10-30T02:08:24;35.45;;;19.85;;
30948;SDS011;17637;51.984;21.208;2022-10-30T02:10:51;28.02;;;17.77;;
30948;SDS011;17637;51.984;21.208;2022-10-30T02:13:19;28.08;;;19.08;;
30948;SDS011;17637;51.984;21.208;2022-10-30T02:15:47;29.42;;;20.60;;
30948;SDS011;17637;51.984;21.208;2022-10-30T02:18:18;34.58;;;21.75;;
30948;SDS011;17637;51.984;21.208;2022-10-30T02:20:45;26.83;;;19.08;;
30948;SDS011;17637;51.984;21.208;2022-10-30T02:23:15;27.33;;;18.30;;
30948;SDS011;17637;51.984;21.208;2022-10-30T02:25:44;28.23;;;20.15;;
30948;SDS011;17637;51.984;21.208;2022-10-30T02:28:11;25.50;;;19.08;;
30948;SDS011;17637;51.984;21.208;2022-10-30T02:30:38;29.98;;;20.05;;
30948;SDS011;17637;51.984;21.208;2022-10-30T02:33:09;35.20;;;21.08;;
30948;SDS011;17637;51.984;21.208;2022-10-30T02:35:37;36.67;;;21.48;;
30948;SDS011;17637;51.984;21.208;2022-10-30T02:38:04;29.80;;;21.33;;
30948;SDS011;17637;51.984;21.208;2022-10-30T02:40:31;28.42;;;17.88;;
30948;SDS011;17637;51.984;21.208;2022-10-30T02:42:58;22.95;;;16.27;;
30948;SDS011;17637;51.984;21.208;2022-10-30T02:45:25;25.20;;;19.77;;
30948;SDS011;17637;51.984;21.208;2022-10-30T02:47:52;31.80;;;20.65;;
30948;SDS011;17637;51.984;21.208;2022-10-30T02:50:19;32.28;;;21.17;;
30948;SDS011;17637;51.984;21.208;2022-10-30T02:52:46;35.65;;;22.05;;
30948;SDS011;17637;51.984;21.208;2022-10-30T02:55:13;27.17;;;19.50;;
30948;SDS011;17637;51.984;21.208;2022-10-30T02:57:40;24.30;;;17.95;;
30948;SDS011;17637;51.984;21.208;2022-10-30T03:00:08;29.38;;;20.92;;
30948;SDS011;17637;51.984;21.208;2022-10-30T03:02:35;26.05;;;19.00;;
30948;SDS011;17637;51.984;21.208;2022-10-30T03:05:02;27.67;;;19.92;;
30948;SDS011;17637;51.984;21.208;2022-10-30T03:07:30;36.20;;;23.25;;
30948;SDS011;17637;51.984;21.208;2022-10-30T03:09:57;37.75;;;28.20;;
30948;SDS011;17637;51.984;21.208;2022-10-30T03:12:24;35.55;;;26.10;;
30948;SDS011;17637;51.984;21.208;2022-10-30T03:14:51;40.30;;;30.23;;
30948;SDS011;17637;51.984;21.208;2022-10-30T03:17:18;41.47;;;30.17;;
30948;SDS011;17637;51.984;21.208;2022-10-30T03:19:45;35.55;;;25.63;;
30948;SDS011;17637;51.984;21.208;2022-10-30T03:22:12;29.17;;;21.58;;
30948;SDS011;17637;51.984;21.208;2022-10-30T03:24:39;34.70;;;22.98;;
30948;SDS011;17637;51.984;21.208;2022-10-30T03:27:06;38.03;;;27.50;;
30948;SDS011;17637;51.984;21.208;2022-10-30T03:29:33;31.88;;;22.70;;
30948;SDS011;17637;51.984;21.208;2022-10-30T03:32:00;37.88;;;24.45;;
30948;SDS011;17637;51.984;21.208;2022-10-30T03:34:27;37.20;;;23.70;;
30948;SDS011;17637;51.984;21.208;2022-10-30T03:36:54;40.60;;;27.45;;
30948;SDS011;17637;51.984;21.208;2022-10-30T03:39:21;35.95;;;26.88;;
30948;SDS011;17637;51.984;21.208;2022-10-30T03:41:48;38.90;;;26.13;;
30948;SDS011;17637;51.984;21.208;2022-10-30T03:44:15;33.53;;;25.75;;
30948;SDS011;17637;51.984;21.208;2022-10-30T03:46:42;41.38;;;26.98;;
30948;SDS011;17637;51.984;21.208;2022-10-30T03:49:09;28.58;;;21.42;;
30948;SDS011;17637;51.984;21.208;2022-10-30T03:51:36;28.15;;;20.05;;
30948;SDS011;17637;51.984;21.208;2022-10-30T03:54:03;32.03;;;21.63;;
30948;SDS011;17637;51.984;21.208;2022-10-30T03:56:30;34.35;;;22.38;;
30948;SDS011;17637;51.984;21.208;2022-10-30T03:58:57;31.02;;;21.75;;
30948;SDS011;17637;51.984;21.208;2022-10-30T04:01:24;27.40;;;20.40;;
30948;SDS011;17637;51.984;21.208;2022-10-30T04:03:51;32.55;;;22.10;;
30948;SDS011;17637;51.984;21.208;2022-10-30T04:06:18;32.67;;;22.27;;
30948;SDS011;17637;51.984;21.208;2022-10-30T04:08:45;32.75;;;23.02;;
30948;SDS011;17637;51.984;21.208;2022-10-30T04:11:12;32.78;;;22.63;;
30948;SDS011;17637;51.984;21.208;2022-10-30T04:13:39;30.70;;;21.73;;
30948;SDS011;17637;51.984;21.208;2022-10-30T04:16:06;42.28;;;25.48;;
30948;SDS011;17637;51.984;21.208;2022-10-30T04:18:33;34.17;;;24.63;;
30948;SDS011;17637;51.984;21.208;2022-10-30T04:21:00;36.17;;;24.42;;
30948;SDS011;17637;51.984;21.208;2022-10-30T04:23:27;36.40;;;24.88;;
30948;SDS011;17637;51.984;21.208;2022-10-30T04:25:54;35.88;;;25.33;;
30948;SDS011;17637;51.984;21.208;2022-10-30T04:28:21;31.17;;;20.42;;
30948;SDS011;17637;51.984;21.208;2022-10-30T04:30:48;35.28;;;24.20;;
30948;SDS011;17637;51.984;21.208;2022-10-30T04:33:15;34.53;;;24.58;;
30948;SDS011;17637;51.984;21.208;2022-10-30T04:35:42;35.08;;;24.85;;
30948;SDS011;17637;51.984;21.208;2022-10-30T04:38:10;30.90;;;22.05;;
30948;SDS011;17637;51.984;21.208;2022-10-30T04:40:40;32.60;;;22.35;;
30948;SDS011;17637;51.984;21.208;2022-10-30T04:43:09;31.90;;;21.88;;
30948;SDS011;17637;51.984;21.208;2022-10-30T04:45:37;28.45;;;20.48;;
30948;SDS011;17637;51.984;21.208;2022-10-30T04:48:15;32.80;;;22.95;;
30948;SDS011;17637;51.984;21.208;2022-10-30T04:50:43;37.40;;;23.50;;
30948;SDS011;17637;51.984;21.208;2022-10-30T04:53:11;25.92;;;19.45;;
30948;SDS011;17637;51.984;21.208;2022-10-30T04:55:40;31.52;;;22.10;;
30948;SDS011;17637;51.984;21.208;2022-10-30T04:58:08;31.05;;;20.67;;
30948;SDS011;17637;51.984;21.208;2022-10-30T05:00:35;35.20;;;23.63;;
30948;SDS011;17637;51.984;21.208;2022-10-30T05:03:02;31.30;;;21.73;;
30948;SDS011;17637;51.984;21.208;2022-10-30T05:05:30;32.70;;;21.02;;
30948;SDS011;17637;51.984;21.208;2022-10-30T05:07:57;31.15;;;24.27;;
30948;SDS011;17637;51.984;21.208;2022-10-30T05:10:25;32.25;;;21.88;;
30948;SDS011;17637;51.984;21.208;2022-10-30T05:12:52;30.27;;;21.27;;
30948;SDS011;17637;51.984;21.208;2022-10-30T05:15:20;27.02;;;20.40;;
30948;SDS011;17637;51.984;21.208;2022-10-30T05:17:51;28.80;;;20.38;;
30948;SDS011;17637;51.984;21.208;2022-10-30T05:20:19;30.83;;;20.65;;
30948;SDS011;17637;51.984;21.208;2022-10-30T05:22:53;32.25;;;22.60;;
30948;SDS011;17637;51.984;21.208;2022-10-30T05:25:22;35.95;;;23.08;;
30948;SDS011;17637;51.984;21.208;2022-10-30T05:27:50;34.10;;;24.15;;
30948;SDS011;17637;51.984;21.208;2022-10-30T05:30:17;40.47;;;27.13;;
30948;SDS011;17637;51.984;21.208;2022-10-30T05:32:44;37.28;;;25.27;;
30948;SDS011;17637;51.984;21.208;2022-10-30T05:35:11;37.15;;;27.40;;
30948;SDS011;17637;51.984;21.208;2022-10-30T05:37:38;36.85;;;24.85;;
30948;SDS011;17637;51.984;21.208;2022-10-30T05:40:05;40.50;;;30.30;;
30948;SDS011;17637;51.984;21.208;2022-10-30T05:42:32;45.63;;;28.80;;
30948;SDS011;17637;51.984;21.208;2022-10-30T05:44:59;37.78;;;28.48;;
30948;SDS011;17637;51.984;21.208;2022-10-30T05:47:27;37.13;;;24.52;;
30948;SDS011;17637;51.984;21.208;2022-10-30T05:49:54;35.33;;;23.83;;
30948;SDS011;17637;51.984;21.208;2022-10-30T05:52:21;41.47;;;25.48;;
30948;SDS011;17637;51.984;21.208;2022-10-30T05:54:48;33.40;;;22.80;;
30948;SDS011;17637;51.984;21.208;2022-10-30T05:57:15;32.40;;;21.30;;
30948;SDS011;17637;51.984;21.208;2022-10-30T05:59:42;31.02;;;22.27;;
30948;SDS011;17637;51.984;21.208;2022-10-30T06:02:09;36.28;;;23.63;;
30948;SDS011;17637;51.984;21.208;2022-10-30T06:04:36;24.00;;;19.20;;
30948;SDS011;17637;51.984;21.208;2022-10-30T06:07:03;28.33;;;20.58;;
30948;SDS011;17637;51.984;21.208;2022-10-30T06:09:30;35.50;;;23.15;;
30948;SDS011;17637;51.984;21.208;2022-10-30T06:11:57;39.13;;;24.30;;
30948;SDS011;17637;51.984;21.208;2022-10-30T06:14:24;28.55;;;22.23;;
30948;SDS011;17637;51.984;21.208;2022-10-30T06:16:51;29.05;;;20.25;;
30948;SDS011;17637;51.984;21.208;2022-10-30T06:19:18;34.10;;;22.48;;
30948;SDS011;17637;51.984;21.208;2022-10-30T06:21:45;30.20;;;21.48;;
30948;SDS011;17637;51.984;21.208;2022-10-30T06:24:13;35.92;;;23.70;;
30948;SDS011;17637;51.984;21.208;2022-10-30T06:26:40;34.47;;;25.42;;
30948;SDS011;17637;51.984;21.208;2022-10-30T06:29:07;32.03;;;20.98;;
30948;SDS011;17637;51.984;21.208;2022-10-30T06:31:34;32.08;;;20.70;;
30948;SDS011;17637;51.984;21.208;2022-10-30T06:34:01;37.22;;;25.52;;
30948;SDS011;17637;51.984;21.208;2022-10-30T06:36:28;35.72;;;25.70;;
30948;SDS011;17637;51.984;21.208;2022-10-30T06:38:55;36.58;;;23.52;;
30948;SDS011;17637;51.984;21.208;2022-10-30T06:41:22;42.03;;;25.17;;
30948;SDS011;17637;51.984;21.208;2022-10-30T06:43:55;36.05;;;22.77;;
30948;SDS011;17637;51.984;21.208;2022-10-30T06:46:22;25.67;;;18.75;;
30948;SDS011;17637;51.984;21.208;2022-10-30T06:48:56;31.70;;;20.33;;
30948;SDS011;17637;51.984;21.208;2022-10-30T06:51:23;30.42;;;20.05;;
30948;SDS011;17637;51.984;21.208;2022-10-30T06:53:50;22.38;;;17.40;;
30948;SDS011;17637;51.984;21.208;2022-10-30T06:56:17;28.40;;;20.20;;
30948;SDS011;17637;51.984;21.208;2022-10-30T06:58:44;30.65;;;19.35;;
30948;SDS011;17637;51.984;21.208;2022-10-30T07:01:11;27.52;;;18.48;;
30948;SDS011;17637;51.984;21.208;2022-10-30T07:03:39;26.40;;;21.00;;
30948;SDS011;17637;51.984;21.208;2022-10-30T07:06:06;31.95;;;21.20;;
30948;SDS011;17637;51.984;21.208;2022-10-30T07:08:33;34.17;;;22.17;;
30948;SDS011;17637;51.984;21.208;2022-10-30T07:11:00;25.63;;;18.50;;
30948;SDS011;17637;51.984;21.208;2022-10-30T07:13:27;35.25;;;21.60;;
30948;SDS011;17637;51.984;21.208;2022-10-30T07:15:54;32.90;;;21.75;;
30948;SDS011;17637;51.984;21.208;2022-10-30T07:18:21;34.22;;;22.55;;
30948;SDS011;17637;51.984;21.208;2022-10-30T07:20:52;31.83;;;20.83;;
30948;SDS011;17637;51.984;21.208;2022-10-30T07:23:21;30.52;;;19.42;;
30948;SDS011;17637;51.984;21.208;2022-10-30T07:25:49;27.83;;;20.02;;
30948;SDS011;17637;51.984;21.208;2022-10-30T07:28:24;25.25;;;19.05;;
30948;SDS011;17637;51.984;21.208;2022-10-30T07:30:51;29.90;;;20.67;;
30948;SDS011;17637;51.984;21.208;2022-10-30T07:33:18;30.23;;;21.00;;
30948;SDS011;17637;51.984;21.208;2022-10-30T07:35:45;25.23;;;18.65;;
30948;SDS011;17637;51.984;21.208;2022-10-30T07:38:12;34.30;;;20.48;;
30948;SDS011;17637;51.984;21.208;2022-10-30T07:40:39;29.08;;;18.52;;
30948;SDS011;17637;51.984;21.208;2022-10-30T07:43:07;25.20;;;17.95;;
30948;SDS011;17637;51.984;21.208;2022-10-30T07:45:38;34.25;;;21.70;;
30948;SDS011;17637;51.984;21.208;2022-10-30T07:48:05;32.50;;;21.77;;
30948;SDS011;17637;51.984;21.208;2022-10-30T07:50:32;23.25;;;16.73;;
30948;SDS011;17637;51.984;21.208;2022-10-30T07:52:59;26.63;;;17.70;;
30948;SDS011;17637;51.984;21.208;2022-10-30T07:55:26;30.15;;;17.48;;
30948;SDS011;17637;51.984;21.208;2022-10-30T07:57:53;22.80;;;16.50;;
30948;SDS011;17637;51.984;21.208;2022-10-30T08:00:20;24.42;;;17.92;;
30948;SDS011;17637;51.984;21.208;2022-10-30T08:02:48;21.70;;;15.07;;
30948;SDS011;17637;51.984;21.208;2022-10-30T08:05:16;25.35;;;15.30;;
30948;SDS011;17637;51.984;21.208;2022-10-30T08:07:45;24.75;;;15.35;;
30948;SDS011;17637;51.984;21.208;2022-10-30T08:10:12;23.42;;;14.82;;
30948;SDS011;17637;51.984;21.208;2022-10-30T08:12:39;22.42;;;14.35;;
30948;SDS011;17637;51.984;21.208;2022-10-30T08:15:09;18.52;;;14.18;;
30948;SDS011;17637;51.984;21.208;2022-10-30T08:17:40;24.17;;;14.63;;
30948;SDS011;17637;51.984;21.208;2022-10-30T08:20:11;21.65;;;13.35;;
30948;SDS011;17637;51.984;21.208;2022-10-30T08:22:44;18.95;;;12.77;;
30948;SDS011;17637;51.984;21.208;2022-10-30T08:25:16;19.67;;;12.57;;
30948;SDS011;17637;51.984;21.208;2022-10-30T08:28:03;18.95;;;12.85;;
30948;SDS011;17637;51.984;21.208;2022-10-30T08:30:33;28.50;;;17.33;;
30948;SDS011;17637;51.984;21.208;2022-10-30T08:33:02;18.35;;;12.20;;
30948;SDS011;17637;51.984;21.208;2022-10-30T08:35:30;19.50;;;12.10;;
30948;SDS011;17637;51.984;21.208;2022-10-30T08:37:59;19.35;;;12.27;;
30948;SDS011;17637;51.984;21.208;2022-10-30T08:40:28;16.77;;;11.48;;
30948;SDS011;17637;51.984;21.208;2022-10-30T08:42:56;20.10;;;10.80;;
30948;SDS011;17637;51.984;21.208;2022-10-30T08:45:23;16.30;;;10.02;;
30948;SDS011;17637;51.984;21.208;2022-10-30T08:47:57;15.93;;;10.85;;
30948;SDS011;17637;51.984;21.208;2022-10-30T08:50:26;12.93;;;9.82;;
30948;SDS011;17637;51.984;21.208;2022-10-30T08:52:53;16.38;;;9.77;;
30948;SDS011;17637;51.984;21.208;2022-10-30T08:55:20;16.38;;;10.00;;
30948;SDS011;17637;51.984;21.208;2022-10-30T08:57:47;15.55;;;8.63;;
30948;SDS011;17637;51.984;21.208;2022-10-30T09:00:14;15.93;;;8.98;;
30948;SDS011;17637;51.984;21.208;2022-10-30T09:02:42;12.93;;;9.05;;
30948;SDS011;17637;51.984;21.208;2022-10-30T09:05:09;16.23;;;9.07;;
30948;SDS011;17637;51.984;21.208;2022-10-30T09:07:37;14.48;;;9.00;;
30948;SDS011;17637;51.984;21.208;2022-10-30T09:10:04;15.32;;;8.35;;
30948;SDS011;17637;51.984;21.208;2022-10-30T09:12:31;13.15;;;8.23;;
30948;SDS011;17637;51.984;21.208;2022-10-30T09:14:58;17.00;;;8.30;;
30948;SDS011;17637;51.984;21.208;2022-10-30T09:17:25;14.15;;;8.73;;
30948;SDS011;17637;51.984;21.208;2022-10-30T09:19:52;9.50;;;7.03;;
30948;SDS011;17637;51.984;21.208;2022-10-30T09:22:19;10.90;;;7.85;;
30948;SDS011;17637;51.984;21.208;2022-10-30T09:24:46;11.07;;;8.38;;
30948;SDS011;17637;51.984;21.208;2022-10-30T09:27:13;14.10;;;8.73;;
30948;SDS011;17637;51.984;21.208;2022-10-30T09:29:40;12.00;;;8.40;;
30948;SDS011;17637;51.984;21.208;2022-10-30T09:32:07;12.82;;;7.95;;
30948;SDS011;17637;51.984;21.208;2022-10-30T09:34:36;12.35;;;8.25;;
30948;SDS011;17637;51.984;21.208;2022-10-30T09:37:03;14.70;;;7.50;;
30948;SDS011;17637;51.984;21.208;2022-10-30T09:39:31;11.88;;;7.65;;
30948;SDS011;17637;51.984;21.208;2022-10-30T09:53:23;11.38;;;6.20;;
30948;SDS011;17637;51.984;21.208;2022-10-30T09:56:07;12.25;;;7.57;;
30948;SDS011;17637;51.984;21.208;2022-10-30T10:01:41;15.32;;;7.75;;
30948;SDS011;17637;51.984;21.208;2022-10-30T10:04:32;13.65;;;6.43;;
30948;SDS011;17637;51.984;21.208;2022-10-30T10:07:06;14.02;;;7.50;;
30948;SDS011;17637;51.984;21.208;2022-10-30T10:09:42;12.13;;;6.07;;
30948;SDS011;17637;51.984;21.208;2022-10-30T10:12:11;8.48;;;5.10;;
30948;SDS011;17637;51.984;21.208;2022-10-30T10:17:38;9.27;;;5.00;;
30948;SDS011;17637;51.984;21.208;2022-10-30T10:22:55;9.73;;;5.60;;
30948;SDS011;17637;51.984;21.208;2022-10-30T10:25:25;10.50;;;4.97;;
30948;SDS011;17637;51.984;21.208;2022-10-30T10:30:48;8.35;;;5.50;;
30948;SDS011;17637;51.984;21.208;2022-10-30T10:36:32;6.93;;;4.13;;
30948;SDS011;17637;51.984;21.208;2022-10-30T10:44:46;8.07;;;4.28;;
30948;SDS011;17637;51.984;21.208;2022-10-30T10:50:09;11.02;;;7.97;;
30948;SDS011;17637;51.984;21.208;2022-10-30T10:52:47;9.07;;;5.05;;
30948;SDS011;17637;51.984;21.208;2022-10-30T10:55:22;6.82;;;5.72;;
30948;SDS011;17637;51.984;21.208;2022-10-30T10:57:55;8.82;;;4.80;;
30948;SDS011;17637;51.984;21.208;2022-10-30T11:00:25;12.50;;;7.45;;
30948;SDS011;17637;51.984;21.208;2022-10-30T11:05:39;6.20;;;4.13;;
30948;SDS011;17637;51.984;21.208;2022-10-30T11:08:26;8.07;;;5.32;;
30948;SDS011;17637;51.984;21.208;2022-10-30T11:10:55;7.88;;;4.60;;
30948;SDS011;17637;51.984;21.208;2022-10-30T11:13:34;8.02;;;4.65;;
30948;SDS011;17637;51.984;21.208;2022-10-30T11:18:35;6.65;;;4.57;;
30948;SDS011;17637;51.984;21.208;2022-10-30T11:21:03;7.40;;;4.45;;
30948;SDS011;17637;51.984;21.208;2022-10-30T11:28:56;5.47;;;4.20;;
30948;SDS011;17637;51.984;21.208;2022-10-30T11:31:28;6.65;;;4.70;;
30948;SDS011;17637;51.984;21.208;2022-10-30T11:34:12;6.20;;;4.40;;
30948;SDS011;17637;51.984;21.208;2022-10-30T11:36:43;8.07;;;4.13;;
30948;SDS011;17637;51.984;21.208;2022-10-30T11:39:15;6.65;;;4.40;;
30948;SDS011;17637;51.984;21.208;2022-10-30T11:44:41;7.72;;;4.13;;
30948;SDS011;17637;51.984;21.208;2022-10-30T11:47:10;8.20;;;5.63;;
30948;SDS011;17637;51.984;21.208;2022-10-30T11:49:45;6.83;;;4.47;;
30948;SDS011;17637;51.984;21.208;2022-10-30T11:52:21;5.07;;;4.03;;
30948;SDS011;17637;51.984;21.208;2022-10-30T11:54:55;5.55;;;3.67;;
30948;SDS011;17637;51.984;21.208;2022-10-30T11:57:33;5.75;;;4.43;;
30948;SDS011;17637;51.984;21.208;2022-10-30T12:00:04;4.18;;;3.70;;
30948;SDS011;17637;51.984;21.208;2022-10-30T12:02:39;7.07;;;3.97;;
30948;SDS011;17637;51.984;21.208;2022-10-30T12:10:33;5.32;;;4.05;;
30948;SDS011;17637;51.984;21.208;2022-10-30T12:13:11;8.50;;;3.72;;
30948;SDS011;17637;51.984;21.208;2022-10-30T12:15:41;5.60;;;3.38;;
30948;SDS011;17637;51.984;21.208;2022-10-30T12:18:20;4.40;;;3.70;;
30948;SDS011;17637;51.984;21.208;2022-10-30T12:20:52;5.43;;;3.53;;
30948;SDS011;17637;51.984;21.208;2022-10-30T12:23:23;5.28;;;3.42;;
30948;SDS011;17637;51.984;21.208;2022-10-30T12:25:53;3.87;;;3.00;;
30948;SDS011;17637;51.984;21.208;2022-10-30T12:28:23;4.22;;;2.97;;
30948;SDS011;17637;51.984;21.208;2022-10-30T12:30:54;4.60;;;3.47;;
30948;SDS011;17637;51.984;21.208;2022-10-30T12:33:31;4.18;;;2.70;;
30948;SDS011;17637;51.984;21.208;2022-10-30T12:36:06;4.00;;;2.42;;
30948;SDS011;17637;51.984;21.208;2022-10-30T12:44:03;4.20;;;2.30;;
30948;SDS011;17637;51.984;21.208;2022-10-30T12:49:40;2.72;;;2.20;;
30948;SDS011;17637;51.984;21.208;2022-10-30T12:55:22;4.30;;;2.60;;
30948;SDS011;17637;51.984;21.208;2022-10-30T12:58:00;4.60;;;2.75;;
30948;SDS011;17637;51.984;21.208;2022-10-30T13:00:52;3.97;;;3.05;;
30948;SDS011;17637;51.984;21.208;2022-10-30T13:03:28;8.05;;;5.50;;
30948;SDS011;17637;51.984;21.208;2022-10-30T13:06:05;4.97;;;3.78;;
30948;SDS011;17637;51.984;21.208;2022-10-30T13:14:35;4.38;;;3.70;;
30948;SDS011;17637;51.984;21.208;2022-10-30T13:17:09;5.63;;;4.13;;
30948;SDS011;17637;51.984;21.208;2022-10-30T13:19:42;7.65;;;6.70;;
30948;SDS011;17637;51.984;21.208;2022-10-30T13:25:23;6.10;;;5.50;;
30948;SDS011;17637;51.984;21.208;2022-10-30T13:30:36;6.43;;;5.18;;
30948;SDS011;17637;51.984;21.208;2022-10-30T13:52:41;6.57;;;4.40;;
30948;SDS011;17637;51.984;21.208;2022-10-30T13:55:21;7.60;;;5.60;;
30948;SDS011;17637;51.984;21.208;2022-10-30T14:06:07;6.22;;;4.20;;
30948;SDS011;17637;51.984;21.208;2022-10-30T14:09:05;7.00;;;4.00;;
30948;SDS011;17637;51.984;21.208;2022-10-30T14:15:04;4.45;;;2.80;;
30948;SDS011;17637;51.984;21.208;2022-10-30T14:17:31;4.82;;;2.80;;
30948;SDS011;17637;51.984;21.208;2022-10-30T14:22:39;6.20;;;4.15;;
30948;SDS011;17637;51.984;21.208;2022-10-30T14:25:13;6.63;;;4.43;;
30948;SDS011;17637;51.984;21.208;2022-10-30T14:27:41;4.55;;;3.38;;
30948;SDS011;17637;51.984;21.208;2022-10-30T14:30:18;5.10;;;4.30;;
30948;SDS011;17637;51.984;21.208;2022-10-30T14:32:49;5.65;;;4.35;;
30948;SDS011;17637;51.984;21.208;2022-10-30T14:35:28;8.07;;;3.72;;
30948;SDS011;17637;51.984;21.208;2022-10-30T14:43:38;7.22;;;4.40;;
30948;SDS011;17637;51.984;21.208;2022-10-30T14:46:02;8.18;;;5.03;;
30948;SDS011;17637;51.984;21.208;2022-10-30T14:51:50;7.53;;;4.63;;
30948;SDS011;17637;51.984;21.208;2022-10-30T14:57:42;8.52;;;5.45;;
30948;SDS011;17637;51.984;21.208;2022-10-30T15:03:09;7.80;;;5.45;;
30948;SDS011;17637;51.984;21.208;2022-10-30T15:11:45;13.90;;;8.52;;
30948;SDS011;17637;51.984;21.208;2022-10-30T15:14:24;15.98;;;10.18;;
30948;SDS011;17637;51.984;21.208;2022-10-30T15:17:15;15.90;;;10.15;;
30948;SDS011;17637;51.984;21.208;2022-10-30T15:19:48;18.27;;;11.68;;
30948;SDS011;17637;51.984;21.208;2022-10-30T15:22:16;19.88;;;15.48;;
30948;SDS011;17637;51.984;21.208;2022-10-30T15:24:46;19.83;;;15.65;;
30948;SDS011;17637;51.984;21.208;2022-10-30T15:27:17;19.83;;;12.77;;
30948;SDS011;17637;51.984;21.208;2022-10-30T15:29:50;18.65;;;12.52;;
30948;SDS011;17637;51.984;21.208;2022-10-30T15:32:21;22.73;;;16.17;;
30948;SDS011;17637;51.984;21.208;2022-10-30T15:34:53;29.48;;;18.15;;
30948;SDS011;17637;51.984;21.208;2022-10-30T15:37:26;28.02;;;19.35;;
30948;SDS011;17637;51.984;21.208;2022-10-30T15:42:42;29.98;;;19.15;;
30948;SDS011;17637;51.984;21.208;2022-10-30T15:45:14;29.75;;;20.50;;
30948;SDS011;17637;51.984;21.208;2022-10-30T15:47:48;26.35;;;18.15;;
30948;SDS011;17637;51.984;21.208;2022-10-30T15:50:25;23.50;;;16.85;;
30948;SDS011;17637;51.984;21.208;2022-10-30T15:52:53;28.02;;;18.00;;
30948;SDS011;17637;51.984;21.208;2022-10-30T15:55:23;24.05;;;16.15;;
30948;SDS011;17637;51.984;21.208;2022-10-30T15:57:54;27.60;;;18.15;;
30948;SDS011;17637;51.984;21.208;2022-10-30T16:00:30;23.65;;;15.60;;
30948;SDS011;17637;51.984;21.208;2022-10-30T16:03:02;24.05;;;17.98;;
30948;SDS011;17637;51.984;21.208;2022-10-30T16:05:32;28.42;;;20.77;;
30948;SDS011;17637;51.984;21.208;2022-10-30T16:08:00;26.58;;;19.42;;
30948;SDS011;17637;51.984;21.208;2022-10-30T16:10:33;30.70;;;23.27;;
30948;SDS011;17637;51.984;21.208;2022-10-30T16:13:01;40.42;;;30.38;;
30948;SDS011;17637;51.984;21.208;2022-10-30T16:15:30;35.33;;;24.75;;
30948;SDS011;17637;51.984;21.208;2022-10-30T16:18:03;41.08;;;27.65;;
30948;SDS011;17637;51.984;21.208;2022-10-30T16:20:33;35.42;;;26.55;;
30948;SDS011;17637;51.984;21.208;2022-10-30T16:23:02;37.83;;;25.48;;
30948;SDS011;17637;51.984;21.208;2022-10-30T16:25:30;39.28;;;24.73;;
30948;SDS011;17637;51.984;21.208;2022-10-30T16:27:59;36.03;;;23.38;;
30948;SDS011;17637;51.984;21.208;2022-10-30T16:30:27;33.75;;;23.42;;
30948;SDS011;17637;51.984;21.208;2022-10-30T16:32:57;41.28;;;27.75;;
30948;SDS011;17637;51.984;21.208;2022-10-30T16:35:25;38.03;;;27.75;;
30948;SDS011;17637;51.984;21.208;2022-10-30T16:37:53;36.30;;;25.08;;
30948;SDS011;17637;51.984;21.208;2022-10-30T16:40:25;40.63;;;27.48;;
30948;SDS011;17637;51.984;21.208;2022-10-30T16:42:57;38.80;;;27.70;;
30948;SDS011;17637;51.984;21.208;2022-10-30T16:47:58;51.13;;;37.07;;
30948;SDS011;17637;51.984;21.208;2022-10-30T16:50:35;69.93;;;47.80;;
30948;SDS011;17637;51.984;21.208;2022-10-30T16:53:10;67.43;;;46.83;;
30948;SDS011;17637;51.984;21.208;2022-10-30T16:55:45;68.22;;;45.45;;
30948;SDS011;17637;51.984;21.208;2022-10-30T16:58:12;58.53;;;41.47;;
30948;SDS011;17637;51.984;21.208;2022-10-30T17:00:47;56.20;;;37.75;;
30948;SDS011;17637;51.984;21.208;2022-10-30T17:03:19;67.78;;;44.72;;
30948;SDS011;17637;51.984;21.208;2022-10-30T17:05:58;101.18;;;63.83;;
30948;SDS011;17637;51.984;21.208;2022-10-30T17:08:38;93.93;;;60.05;;
30948;SDS011;17637;51.984;21.208;2022-10-30T17:11:17;108.43;;;67.65;;
30948;SDS011;17637;51.984;21.208;2022-10-30T17:13:56;87.55;;;56.63;;
30948;SDS011;17637;51.984;21.208;2022-10-30T17:18:57;82.57;;;51.90;;
30948;SDS011;17637;51.984;21.208;2022-10-30T17:24:03;85.00;;;55.72;;